createdAt,value
2022-11-12T00:01:18.474Z,100149.00
2022-11-12T00:03:46.645Z,100132.00
2022-11-12T00:06:14.875Z,100147.00
2022-11-12T00:08:43.042Z,100146.00
2022-11-12T00:11:12.656Z,100131.00
2022-11-12T00:13:40.788Z,100146.00
2022-11-12T00:16:09.949Z,100107.00
2022-11-12T00:18:38.213Z,100131.00
2022-11-12T00:21:06.487Z,100144.00
2022-11-12T00:23:37.837Z,100121.00
2022-11-12T00:26:06.247Z,100153.00
2022-11-12T00:28:38.213Z,100141.00
2022-11-12T00:31:12.270Z,100134.00
2022-11-12T00:33:41.814Z,100126.00
2022-11-12T00:36:10.047Z,100133.00
2022-11-12T00:38:38.235Z,100130.00
2022-11-12T00:41:06.469Z,100132.00
2022-11-12T00:43:36.008Z,100122.00
2022-11-12T00:46:04.179Z,100149.00
2022-11-12T00:48:32.340Z,100127.00
2022-11-12T00:51:01.794Z,100140.00
2022-11-12T00:53:29.995Z,100152.00
2022-11-12T00:56:02.386Z,100135.00
2022-11-12T00:58:31.302Z,100131.00
2022-11-12T01:01:09.433Z,100120.00
2022-11-12T01:03:37.629Z,100098.00
2022-11-12T01:06:06.235Z,100153.00
2022-11-12T01:08:34.468Z,100158.00
2022-11-12T01:11:09.372Z,100137.00
2022-11-12T01:13:41.423Z,100041.00
2022-11-12T01:16:14.447Z,100131.00
2022-11-12T01:18:42.683Z,100138.00
2022-11-12T01:21:11.113Z,100140.00
2022-11-12T01:23:40.134Z,100106.00
2022-11-12T01:26:08.299Z,100106.00
2022-11-12T01:28:36.633Z,100118.00
2022-11-12T01:31:13.523Z,100118.00
2022-11-12T01:33:41.720Z,100132.00
2022-11-12T01:36:10.075Z,100130.00
2022-11-12T01:38:38.461Z,100147.00
2022-11-12T01:41:07.224Z,100142.00
2022-11-12T01:43:35.391Z,100115.00
2022-11-12T01:46:04.642Z,100122.00
2022-11-12T01:48:35.518Z,100163.00
2022-11-12T01:51:03.920Z,100099.00
2022-11-12T01:53:33.229Z,100130.00
2022-11-12T01:56:01.627Z,100093.00
2022-11-12T01:58:30.157Z,100104.00
2022-11-12T02:00:58.313Z,100130.00
2022-11-12T02:03:26.436Z,100099.00
2022-11-12T02:05:57.695Z,100047.00
2022-11-12T02:08:26.239Z,100081.00
2022-11-12T02:10:54.777Z,100097.00
2022-11-12T02:13:40.420Z,100082.00
2022-11-12T02:16:24.741Z,100097.00
2022-11-12T02:18:52.749Z,100111.00
2022-11-12T02:21:22.494Z,100149.00
2022-11-12T02:23:58.953Z,100132.00
2022-11-12T02:26:27.222Z,100114.00
2022-11-12T02:28:55.258Z,100112.00
2022-11-12T02:31:23.335Z,100028.00
2022-11-12T02:33:54.543Z,100123.00
2022-11-12T02:36:24.254Z,100115.00
2022-11-12T02:38:52.290Z,100125.00
2022-11-12T02:41:20.465Z,100118.00
2022-11-12T02:43:48.635Z,100106.00
2022-11-12T02:46:17.067Z,100052.00
2022-11-12T02:48:45.706Z,100124.00
2022-11-12T02:51:13.800Z,100103.00
2022-11-12T02:53:43.338Z,100106.00
2022-11-12T02:56:11.882Z,100149.00
2022-11-12T02:58:40.057Z,100152.00
2022-11-12T03:01:08.428Z,100136.00
2022-11-12T03:03:36.759Z,100109.00
2022-11-12T03:06:04.995Z,100050.00
2022-11-12T03:08:33.165Z,100075.00
2022-11-12T03:11:07.609Z,100086.00
2022-11-12T03:13:35.642Z,100097.00
2022-11-12T03:16:03.833Z,100094.00
2022-11-12T03:18:32.239Z,100079.00
2022-11-12T03:21:00.628Z,100053.00
2022-11-12T03:23:28.813Z,100144.00
2022-11-12T03:25:56.820Z,100105.00
2022-11-12T03:28:27.114Z,100100.00
2022-11-12T03:30:58.300Z,100061.00
2022-11-12T03:33:26.562Z,100084.00
2022-11-12T03:35:54.616Z,100102.00
2022-11-12T03:38:22.766Z,100106.00
2022-11-12T03:40:50.946Z,100060.00
2022-11-12T03:43:19.035Z,100086.00
2022-11-12T03:45:48.622Z,100108.00
2022-11-12T03:48:16.586Z,100102.00
2022-11-12T03:50:44.597Z,100073.00
2022-11-12T03:53:12.621Z,100033.00
2022-11-12T03:55:40.659Z,100013.00
2022-11-12T03:58:08.697Z,100090.00
2022-11-12T04:00:36.722Z,100056.00
2022-11-12T04:03:06.143Z,100027.00
2022-11-12T04:05:59.845Z,100084.00
2022-11-12T04:08:39.929Z,100114.00
2022-11-12T04:11:09.001Z,100053.00
2022-11-12T04:13:38.369Z,100116.00
2022-11-12T04:16:25.511Z,100082.00
2022-11-12T04:19:12.925Z,100104.00
2022-11-12T04:21:54.833Z,100119.00
2022-11-12T04:24:45.056Z,100082.00
2022-11-12T04:27:14.641Z,100143.00
2022-11-12T04:30:00.347Z,100136.00
2022-11-12T04:32:28.460Z,100076.00
2022-11-12T04:34:57.964Z,100113.00
2022-11-12T04:37:26.909Z,100061.00
2022-11-12T04:39:55.017Z,100052.00
2022-11-12T04:42:40.802Z,100129.00
2022-11-12T04:45:09.427Z,100110.00
2022-11-12T04:47:39.496Z,100120.00
2022-11-12T04:50:14.073Z,100137.00
2022-11-12T04:52:42.046Z,100133.00
2022-11-12T04:55:10.864Z,100144.00
2022-11-12T04:57:39.027Z,100064.00
2022-11-12T05:00:08.120Z,100126.00
2022-11-12T05:02:36.113Z,100075.00
2022-11-12T05:05:04.341Z,100166.00
2022-11-12T05:07:34.647Z,100139.00
2022-11-12T05:10:02.729Z,100141.00
2022-11-12T05:12:30.818Z,100121.00
2022-11-12T05:14:58.849Z,100128.00
2022-11-12T05:17:26.882Z,100088.00
2022-11-12T05:19:54.983Z,100116.00
2022-11-12T05:22:42.560Z,100142.00
2022-11-12T05:25:11.496Z,100157.00
2022-11-12T05:27:39.502Z,100137.00
2022-11-12T05:30:08.496Z,100101.00
2022-11-12T05:32:36.499Z,100131.00
2022-11-12T05:35:04.815Z,100035.00
2022-11-12T05:37:32.833Z,100074.00
2022-11-12T05:40:01.019Z,100112.00
2022-11-12T05:42:30.416Z,100137.00
2022-11-12T05:44:58.462Z,100118.00
2022-11-12T05:47:26.455Z,100113.00
2022-11-12T05:49:54.465Z,100135.00
2022-11-12T05:52:22.450Z,100160.00
2022-11-12T05:54:50.514Z,100167.00
2022-11-12T05:57:18.525Z,100045.00
2022-11-12T05:59:47.961Z,100139.00
2022-11-12T06:02:16.014Z,100079.00
2022-11-12T06:04:44.112Z,100115.00
2022-11-12T06:07:12.184Z,100126.00
2022-11-12T06:09:40.259Z,100110.00
2022-11-12T06:12:08.657Z,100112.00
2022-11-12T06:14:37.773Z,100110.00
2022-11-12T06:17:07.140Z,100160.00
2022-11-12T06:19:35.231Z,100114.00
2022-11-12T06:22:03.290Z,100155.00
2022-11-12T06:24:34.905Z,100114.00
2022-11-12T06:27:03.461Z,100108.00
2022-11-12T06:29:31.507Z,100157.00
2022-11-12T06:31:59.491Z,100180.00
2022-11-12T06:34:28.892Z,100115.00
2022-11-12T06:36:56.940Z,100153.00
2022-11-12T06:39:24.943Z,100126.00
2022-11-12T06:41:52.998Z,100154.00
2022-11-12T06:44:22.462Z,100139.00
2022-11-12T06:46:50.629Z,100153.00
2022-11-12T06:49:18.607Z,100153.00
2022-11-12T06:51:47.960Z,100143.00
2022-11-12T06:54:16.101Z,100138.00
2022-11-12T06:56:44.069Z,100148.00
2022-11-12T06:59:12.108Z,100178.00
2022-11-12T07:01:40.145Z,100152.00
2022-11-12T07:04:08.232Z,100160.00
2022-11-12T07:06:36.400Z,100095.00
2022-11-12T07:09:05.886Z,100137.00
2022-11-12T07:11:33.868Z,100111.00
2022-11-12T07:14:01.842Z,100084.00
2022-11-12T07:16:29.791Z,100167.00
2022-11-12T07:18:57.804Z,100201.00
2022-11-12T07:21:25.796Z,100151.00
2022-11-12T07:23:53.905Z,100174.00
2022-11-12T07:26:23.923Z,100150.00
2022-11-12T07:28:52.343Z,100106.00
2022-11-12T07:31:21.013Z,100164.00
2022-11-12T07:33:49.698Z,100137.00
2022-11-12T07:36:18.574Z,100142.00
2022-11-12T07:38:46.651Z,100095.00
2022-11-12T07:41:15.793Z,100096.00
2022-11-12T07:43:46.423Z,100115.00
2022-11-12T07:46:15.734Z,100164.00
2022-11-12T07:48:44.571Z,100149.00
2022-11-12T07:51:13.926Z,100166.00
2022-11-12T07:53:42.554Z,100150.00
2022-11-12T07:56:11.599Z,100192.00
2022-11-12T07:58:39.598Z,100158.00
2022-11-12T08:01:20.345Z,100141.00
2022-11-12T08:03:48.292Z,100216.00
2022-11-12T08:06:16.276Z,100180.00
2022-11-12T08:08:55.321Z,100141.00
2022-11-12T08:11:23.580Z,100146.00
2022-11-12T08:13:51.643Z,100171.00
2022-11-12T08:16:21.071Z,100147.00
2022-11-12T08:18:52.372Z,100172.00
2022-11-12T08:21:20.439Z,100185.00
2022-11-12T08:23:48.594Z,100168.00
2022-11-12T08:26:17.447Z,100167.00
2022-11-12T08:28:45.531Z,100162.00
2022-11-12T08:31:14.305Z,100133.00
2022-11-12T08:33:43.738Z,100179.00
2022-11-12T08:36:12.854Z,100146.00
2022-11-12T08:38:41.448Z,100129.00
2022-11-12T08:41:10.827Z,100166.00
2022-11-12T08:43:39.477Z,100129.00
2022-11-12T08:46:07.564Z,100155.00
2022-11-12T08:48:35.655Z,100166.00
2022-11-12T08:51:12.967Z,100203.00
2022-11-12T08:53:41.326Z,100093.00
2022-11-12T08:56:09.416Z,100173.00
2022-11-12T08:58:37.378Z,100123.00
2022-11-12T09:01:05.693Z,100164.00
2022-11-12T09:03:33.729Z,100110.00
2022-11-12T09:06:05.308Z,100190.00
2022-11-12T09:08:34.306Z,100169.00
2022-11-12T09:11:02.378Z,100168.00
2022-11-12T09:13:30.526Z,100157.00
2022-11-12T09:16:03.550Z,100168.00
2022-11-12T09:18:33.221Z,100132.00
2022-11-12T09:21:02.872Z,100149.00
2022-11-12T09:23:32.430Z,100163.00
2022-11-12T09:26:00.426Z,100119.00
2022-11-12T09:28:28.772Z,100101.00
2022-11-12T09:30:57.196Z,100159.00
2022-11-12T09:33:26.172Z,100121.00
2022-11-12T09:35:54.500Z,100081.00
2022-11-12T09:38:23.243Z,100150.00
2022-11-12T09:41:15.228Z,100171.00
2022-11-12T09:43:44.689Z,100181.00
2022-11-12T09:46:32.835Z,100164.00
2022-11-12T09:49:04.621Z,100169.00
2022-11-12T09:51:34.767Z,100170.00
2022-11-12T09:54:03.994Z,100144.00
2022-11-12T09:56:33.368Z,100090.00
2022-11-12T09:59:01.450Z,100159.00
2022-11-12T10:01:41.089Z,100150.00
2022-11-12T20:47:46.997Z,99788.00
2022-11-12T20:50:15.185Z,99776.00
2022-11-12T20:52:43.250Z,99780.00
2022-11-12T20:55:11.904Z,99774.00
2022-11-12T20:57:40.422Z,99788.00
2022-11-12T21:00:13.804Z,99777.00
2022-11-12T21:02:43.096Z,99778.00
2022-11-12T21:05:12.596Z,99768.00
2022-11-12T21:07:40.712Z,99768.00
2022-11-12T21:10:09.791Z,99772.00
2022-11-12T21:12:37.983Z,99764.00
2022-11-12T21:15:07.068Z,99773.00
2022-11-12T21:17:35.217Z,99776.00
2022-11-12T21:20:04.149Z,99763.00
2022-11-12T21:22:34.833Z,99763.00
2022-11-12T21:25:02.958Z,99766.00
2022-11-12T21:27:31.373Z,99761.00
2022-11-12T21:29:59.588Z,99760.00
2022-11-12T21:32:27.631Z,99749.00
2022-11-12T21:34:56.321Z,99760.00
2022-11-12T21:37:24.402Z,99759.00
2022-11-12T21:39:54.002Z,99755.00
2022-11-12T21:42:22.183Z,99756.00
2022-11-12T21:44:52.935Z,99757.00
2022-11-12T21:47:21.002Z,99741.00
2022-11-12T21:49:49.168Z,99743.00
2022-11-12T21:52:17.251Z,99744.00
2022-11-12T21:54:45.483Z,99750.00
2022-11-12T21:57:18.602Z,99756.00
2022-11-12T21:59:47.193Z,99748.00
2022-11-12T22:02:16.489Z,99759.00
2022-11-12T22:04:44.567Z,99746.00
2022-11-12T22:07:12.724Z,99743.00
2022-11-12T22:09:40.947Z,99758.00
2022-11-12T22:12:09.107Z,99754.00
2022-11-12T22:14:38.574Z,99750.00
2022-11-12T22:17:06.685Z,99752.00
2022-11-12T22:19:35.202Z,99750.00
2022-11-12T22:22:03.405Z,99761.00
2022-11-12T22:24:31.669Z,99743.00
2022-11-12T22:27:05.098Z,99739.00
2022-11-12T22:29:33.744Z,99729.00
2022-11-12T22:32:03.383Z,99734.00
2022-11-12T22:34:31.666Z,99731.00
2022-11-12T22:36:59.712Z,99719.00
2022-11-12T22:39:27.813Z,99719.00
2022-11-12T22:41:55.825Z,99728.00
2022-11-12T22:44:23.962Z,99726.00
2022-11-12T22:46:52.163Z,99720.00
2022-11-12T22:49:21.700Z,99713.00
2022-11-12T22:51:49.895Z,99713.00
2022-11-12T22:54:18.246Z,99729.00
2022-11-12T22:56:46.704Z,99718.00
2022-11-12T22:59:14.969Z,99721.00
2022-11-12T23:01:43.157Z,99723.00
2022-11-12T23:04:11.261Z,99729.00
2022-11-12T23:06:40.838Z,99723.00
2022-11-12T23:09:09.018Z,99709.00
2022-11-12T23:11:37.650Z,99709.00
2022-11-12T23:14:05.773Z,99697.00
2022-11-12T23:16:35.357Z,99703.00
2022-11-12T23:19:03.539Z,99701.00
2022-11-12T23:21:31.928Z,99698.00
2022-11-12T23:24:01.445Z,99699.00
2022-11-12T23:26:30.992Z,99703.00
2022-11-12T23:28:59.149Z,99699.00
2022-11-12T23:31:28.115Z,99693.00
2022-11-12T23:33:57.162Z,99698.00
2022-11-12T23:36:25.807Z,99692.00
2022-11-12T23:38:53.900Z,99690.00
2022-11-12T23:41:25.850Z,99696.00
2022-11-12T23:43:54.090Z,99684.00
2022-11-12T23:46:22.348Z,99688.00
2022-11-12T23:48:50.493Z,99678.00
2022-11-12T23:51:19.726Z,99685.00
2022-11-12T23:53:47.772Z,99682.00
2022-11-12T23:56:16.601Z,99682.00
2022-11-12T23:58:46.041Z,99679.00
